Airfield :
LOGIN :

Register | Disclaimer

   EN    FR    IT 

 










Legend :    VFR   Marginal VFR   IFR   Intensive IFR   Very Intensive IFR
Visi :
Ceiling :
>= 8 km
>= 3000ft
5 to 8 km
1000 to 3000 ft
1500m to 5 km
500 to 1000 ft
800 to 1500m
200 to 500 ft
< 800m
< 200 ft
Symbols :   Thunderstorms  Fog  Heavy snow  Heavy precipitations  Wind > 20 kt
SIGMETs :     Misc.  Thunderstorms  Icing  Turbulence  Mountain Waves  Volcanic Ashes






- Airport Elevation : 580 ft


LFOA - Avord

CURRENT METAR :
  • 260800Z AUTO 13004KT CAVOK M04/M04 Q1023 NOSIG

EXPIRED METARs :
  • 260730Z AUTO 19003KT CAVOK M04/M05 Q1023 NOSIG
  • 260700Z AUTO 19002KT 9000 NSC M04/M05 Q1023 NOSIG
  • 260630Z AUTO 20003KT 7000 NSC M04/M05 Q1023 NOSIG
  • 260600Z AUTO 20003KT 8000 NSC M04/M04 Q1023 TEMPO 3000 BR
  • 260530Z AUTO 19003KT CAVOK M03/M04 Q1023 TEMPO 3000 BR

TAF AMD TAF LFOA
Valid from the 26 at 04:00 until the 27 at 03:00 UTC


260425Z 2604/2703 VRB02KT 8000 NSC TX04/2615Z TNM04/2605Z
PROB40
TEMPO 2604/2607 3000 BR
BECMG 2612/2614 13008KT
TEMPO 2702/2703 4000 RA BKN014



MET'MAP, your aeronautical weather chart ! - Copyright ORBIFLY December 2007 - Disclaimer

ORBIFLY MET'MAP TEAM :

Programming & Development : Alexandra Zaïnal
Concept & original design : Baudouin d'Aumeries
Assistance for programming : Marc-Olivier Méhu
Technical & hardware support : Manuel Goepfert

Contact : metmap@orbifly.com




SOURCES & CREDITS :

   NOAA